Time;durP1;ratioP1;P1;durP2;ratioP2;P2;SDS_P1;SDS_P2;PMS_P1;PMS_P2;Temp;Humidity;BMP_temperature;BMP_pressure;BME280_temperature;BME280_humidity;BME280_pressure;Samples;Min_cycle;Max_cycle;Signal;HPM_P1;HPM_P2
2021/06/11 03:20:56;;;;;;;9.65;5.75;;;487.10;2278.40;;;;;;3658445;23;20259;-76
2021/06/11 03:23:52;;;;;;;6.38;5.38;;;487.30;2304.00;;;;;;4987585;23;20523;-76
2021/06/11 03:26:24;;;;;;;7.57;4.95;;;512.00;2304.00;;;;;;4862942;29;20063;-78
2021/06/11 03:28:54;;;;;;;6.28;4.63;;;487.30;2227.20;;;;;;4879689;29;20040;-75
2021/06/11 03:31:24;;;;;;;5.82;5.00;;;487.30;2227.20;;;;;;4880838;29;20025;-76
2021/06/11 03:33:58;;;;;;;6.13;5.13;;;487.30;2227.20;;;;;;4879353;29;20148;-75
2021/06/11 03:36:28;;;;;;;7.07;4.35;;;487.30;2252.80;;;;;;4880847;29;20029;-78
2021/06/11 03:38:59;;;;;;;8.77;5.32;;;487.30;2252.80;;;;;;4880493;29;20021;-81
2021/06/11 03:41:25;;;;;;;7.28;4.70;;;487.30;2252.80;;;;;;4880941;29;20036;-76
2021/06/11 03:43:53;;;;;;;7.97;4.82;;;487.20;2252.80;;;;;;4879489;29;20037;-74
2021/06/11 03:46:19;;;;;;;9.48;5.25;;;487.30;2252.80;;;;;;4879244;29;20086;-79
2021/06/11 03:48:51;;;;;;;8.93;5.05;;;487.30;2252.80;;;;;;4879329;29;20499;-80
2021/06/11 03:51:19;;;;;;;11.93;6.15;;;487.30;2252.80;;;;;;4879063;29;20032;-80
2021/06/11 03:53:45;;;;;;;9.98;5.68;;;487.30;2252.80;;;;;;4879323;29;20037;-78
2021/06/11 03:56:12;;;;;;;5.80;4.80;;;512.00;2252.80;;;;;;4878801;29;20061;-78
2021/06/11 03:58:47;;;;;;;9.80;4.82;;;487.30;2252.80;;;;;;4880595;29;20032;-78
2021/06/11 04:01:25;;;;;;;8.00;4.68;;;487.30;2252.80;;;;;;4880347;29;20028;-80
2021/06/11 04:03:53;;;;;;;7.32;5.13;;;487.30;2252.80;;;;;;4879139;29;20033;-80
2021/06/11 04:06:31;;;;;;;9.35;5.00;;;487.30;2252.80;;;;;;4878936;29;20511;-79
2021/06/11 04:09:05;;;;;;;7.05;5.03;;;487.30;2252.80;;;;;;4879086;29;20514;-79
2021/06/11 04:11:37;;;;;;;10.85;5.72;;;487.20;2252.80;;;;;;4878993;29;20029;-79
2021/06/11 04:14:03;;;;;;;11.80;6.13;;;487.20;2278.40;;;;;;4879346;29;20029;-79
2021/06/11 04:16:50;;;;;;;6.95;5.05;;;487.10;2252.80;;;;;;4878760;29;20479;-80
2021/06/11 04:19:18;;;;;;;;;;;487.10;2278.40;;;;;;4879325;29;20033;-80
2021/06/11 04:21:47;;;;;;;7.05;5.65;;;487.10;2278.40;;;;;;4878734;29;19912;-80
2021/06/11 04:24:13;;;;;;;7.28;5.32;;;487.10;2278.40;;;;;;4878852;29;20081;-80
2021/06/11 04:26:42;;;;;;;9.60;5.78;;;487.10;2278.40;;;;;;4878891;29;20021;-80
2021/06/11 04:29:11;;;;;;;6.95;5.22;;;487.10;2278.40;;;;;;4879892;29;20037;-80
2021/06/11 04:31:37;;;;;;;6.97;5.00;;;487.10;2278.40;;;;;;4867622;29;20543;-80
2021/06/11 04:34:03;;;;;;;7.07;5.55;;;487.30;2278.40;;;;;;4879879;29;20053;-79
2021/06/11 04:36:29;;;;;;;8.05;5.63;;;487.30;2252.80;;;;;;4869782;29;20108;-80
2021/06/11 04:38:58;;;;;;;7.75;6.20;;;487.30;2278.40;;;;;;4877610;29;20444;-79
2021/06/11 04:41:28;;;;;;;7.47;5.95;;;512.00;2304.00;;;;;;4878586;29;20029;-80
2021/06/11 04:43:58;;;;;;;10.20;5.93;;;512.10;2304.00;;;;;;4878568;29;20021;-79
2021/06/11 04:46:23;;;;;;;9.02;5.78;;;512.00;2252.80;;;;;;4879586;29;20037;-79
2021/06/11 04:48:49;;;;;;;10.68;6.60;;;512.10;2278.40;;;;;;4878281;29;20040;-79
2021/06/11 04:51:15;;;;;;;13.35;6.65;;;512.10;2278.40;;;;;;4877564;29;20045;-79
2021/06/11 04:53:41;;;;;;;7.65;6.13;;;512.20;2252.80;;;;;;4878492;29;20082;-80
2021/06/11 04:56:08;;;;;;;9.80;6.55;;;512.10;2304.00;;;;;;4865775;29;20472;-79
2021/06/11 04:58:38;;;;;;;9.90;7.20;;;512.30;2278.40;;;;;;4878386;29;20029;-79
2021/06/11 05:01:05;;;;;;;8.90;6.85;;;512.30;2278.40;;;;;;4878180;29;20028;-80
2021/06/11 05:03:32;;;;;;;10.95;7.18;;;512.40;2278.40;;;;;;4878065;29;20052;-80
2021/06/11 05:05:58;;;;;;;10.00;7.45;;;512.50;2278.40;;;;;;4878275;29;20097;-80
2021/06/11 05:08:24;;;;;;;11.30;7.95;;;512.50;2278.40;;;;;;4879314;29;20487;-80
2021/06/11 05:10:51;;;;;;;9.73;6.93;;;512.50;2278.40;;;;;;4878075;29;20037;-80
2021/06/11 05:13:17;;;;;;;11.02;7.90;;;512.70;2304.00;;;;;;4877775;29;20040;-80
2021/06/11 05:15:42;;;;;;;9.32;7.88;;;512.80;2278.40;;;;;;4878054;29;20029;-79
2021/06/11 05:18:08;;;;;;;12.15;8.38;;;512.70;2278.40;;;;;;4864619;29;20025;-80
2021/06/11 05:20:35;;;;;;;11.70;7.60;;;512.80;2278.40;;;;;;4877993;29;20129;-80
2021/06/11 05:23:01;;;;;;;10.52;7.50;;;512.80;2278.40;;;;;;4877336;29;20049;-79
2021/06/11 05:25:27;;;;;;;11.25;7.65;;;512.90;2278.40;;;;;;4877810;29;20021;-79
2021/06/11 05:27:53;;;;;;;14.18;8.07;;;512.90;2304.00;;;;;;4877921;29;20040;-80
2021/06/11 05:30:19;;;;;;;13.38;7.85;;;537.60;2304.00;;;;;;4878612;29;20041;-81
2021/06/11 05:32:46;;;;;;;13.57;8.27;;;537.70;2304.00;;;;;;4878035;29;20037;-80
2021/06/11 05:35:12;;;;;;;16.73;10.15;;;537.70;2329.60;;;;;;4877596;29;20037;-81
2021/06/11 05:37:38;;;;;;;15.60;10.52;;;537.70;2278.40;;;;;;4877991;29;20033;-82
2021/06/11 05:40:05;;;;;;;27.48;11.27;;;537.70;2278.40;;;;;;4877818;29;20033;-81
2021/06/11 05:42:31;;;;;;;15.00;12.18;;;537.90;2252.80;;;;;;4877658;29;20101;-80
2021/06/11 05:44:57;;;;;;;13.38;10.65;;;537.80;2304.00;;;;;;4877297;29;20033;-80
2021/06/11 05:47:22;;;;;;;14.00;10.23;;;537.90;2304.00;;;;;;4877394;29;20035;-81
2021/06/11 05:49:48;;;;;;;12.43;11.02;;;537.90;2201.60;;;;;;4878223;29;20047;-76
2021/06/11 05:52:14;;;;;;;14.18;11.10;;;537.90;2227.20;;;;;;4877940;29;20036;-76
2021/06/11 05:54:40;;;;;;;15.93;10.90;;;538.00;2201.60;;;;;;4878435;29;20033;-77
2021/06/11 05:57:06;;;;;;;16.75;11.77;;;538.10;2201.60;;;;;;4876836;29;20029;-79
2021/06/11 05:59:31;;;;;;;14.93;10.95;;;538.10;2201.60;;;;;;4877200;29;20036;-77
2021/06/11 06:01:57;;;;;;;15.43;11.57;;;538.20;2227.20;;;;;;4878311;29;20525;-78
2021/06/11 06:04:23;;;;;;;16.83;11.52;;;538.20;2150.40;;;;;;4876295;29;20033;-75
2021/06/11 06:06:48;;;;;;;20.10;11.52;;;538.30;2201.60;;;;;;4878125;29;20784;-79
2021/06/11 06:09:14;;;;;;;20.88;11.90;;;538.30;2099.20;;;;;;4877864;29;20387;-78
2021/06/11 06:11:40;;;;;;;15.13;11.27;;;538.30;2099.20;;;;;;4877888;29;20025;-79
2021/06/11 06:14:06;;;;;;;17.40;12.27;;;538.50;2073.60;;;;;;4878011;29;20028;-79
2021/06/11 06:16:32;;;;;;;14.88;12.73;;;563.30;2124.80;;;;;;4860865;29;20036;-79
2021/06/11 06:18:58;;;;;;;18.00;11.63;;;563.30;2124.80;;;;;;4875372;29;20017;-82
2021/06/11 06:21:24;;;;;;;18.15;12.80;;;563.40;2124.80;;;;;;4861532;29;20033;-77
2021/06/11 06:23:50;;;;;;;18.42;12.35;;;563.30;2124.80;;;;;;4861198;29;20052;-76
2021/06/11 06:26:16;;;;;;;17.15;12.25;;;563.50;2124.80;;;;;;4878081;29;20041;-80
2021/06/11 06:28:42;;;;;;;16.88;11.23;;;563.50;2099.20;;;;;;4861218;29;20169;-79
2021/06/11 06:31:08;;;;;;;13.73;11.70;;;563.60;2099.20;;;;;;4861137;29;20051;-82
2021/06/11 06:33:33;;;;;;;15.35;11.40;;;563.60;2073.60;;;;;;4877710;29;20472;-79
2021/06/11 06:35:59;;;;;;;17.52;11.35;;;563.70;2048.00;;;;;;4877902;29;20021;-75
2021/06/11 06:38:25;;;;;;;13.95;11.80;;;563.70;2022.40;;;;;;4861381;29;20124;-79
2021/06/11 06:40:59;;;;;;;17.27;12.48;;;563.90;2048.00;;;;;;4878082;29;20029;-77
2021/06/11 06:43:25;;;;;;;16.38;11.30;;;563.90;1996.80;;;;;;4872531;29;20037;-75
2021/06/11 06:45:50;;;;;;;15.60;11.70;;;563.90;1996.80;;;;;;4877726;29;20055;-77
2021/06/11 06:48:16;;;;;;;15.82;13.02;;;564.00;2022.40;;;;;;4877878;29;20025;-75
2021/06/11 06:50:42;;;;;;;17.15;11.30;;;564.10;2048.00;;;;;;4877149;29;20051;-75
2021/06/11 06:53:08;;;;;;;20.77;11.68;;;564.10;1996.80;;;;;;4877381;29;20039;-75
2021/06/11 06:55:34;;;;;;;12.38;11.07;;;564.10;1996.80;;;;;;4877687;29;20025;-79
2021/06/11 06:58:00;;;;;;;15.73;11.77;;;588.90;1996.80;;;;;;4861195;29;20021;-79
2021/06/11 07:00:26;;;;;;;17.33;12.25;;;589.00;1996.80;;;;;;4877603;29;20094;-77
2021/06/11 07:02:51;;;;;;;18.55;13.45;;;588.90;2022.40;;;;;;4861175;29;20029;-76
2021/06/11 07:05:17;;;;;;;16.98;12.18;;;589.00;1971.20;;;;;;4860993;29;20036;-79
2021/06/11 07:07:43;;;;;;;20.08;12.35;;;589.10;1945.60;;;;;;4861012;29;20033;-77
2021/06/11 07:10:09;;;;;;;17.58;12.10;;;589.10;1945.60;;;;;;4877646;29;20033;-78
2021/06/11 07:12:36;;;;;;;19.23;10.00;;;589.40;1971.20;;;;;;4877400;29;20052;-76
2021/06/11 07:15:03;;;;;;;17.80;10.98;;;589.50;1920.00;;;;;;4879572;29;20024;-75
2021/06/11 07:17:29;;;;;;;16.05;10.75;;;589.60;1868.80;;;;;;4880971;29;20035;-75
2021/06/11 07:19:55;;;;;;;18.92;11.00;;;589.70;1894.40;;;;;;4881379;29;20036;-78
2021/06/11 07:22:21;;;;;;;11.98;10.65;;;589.70;1920.00;;;;;;4880736;29;20053;-82
2021/06/11 07:24:47;;;;;;;15.82;10.45;;;614.40;1843.20;;;;;;4880892;29;20032;-75
2021/06/11 07:27:12;;;;;;;14.13;10.05;;;614.50;1945.60;;;;;;4880761;29;20037;-76
2021/06/11 07:29:44;;;;;;;11.45;8.88;;;614.60;1894.40;;;;;;4880715;29;20037;-77
2021/06/11 07:32:15;;;;;;;13.30;8.43;;;614.70;1843.20;;;;;;4880488;29;20471;-77
2021/06/11 07:34:42;;;;;;;9.93;8.50;;;614.80;1843.20;;;;;;4864179;29;20056;-82
2021/06/11 07:37:07;;;;;;;14.40;8.32;;;614.80;1843.20;;;;;;4880783;29;20081;-78
2021/06/11 07:39:34;;;;;;;15.25;8.18;;;614.90;1792.00;;;;;;4864041;29;20029;-81
2021/06/11 07:42:00;;;;;;;13.13;8.93;;;614.80;1817.60;;;;;;4880697;29;20036;-76
2021/06/11 07:44:26;;;;;;;10.60;7.38;;;615.00;1843.20;;;;;;4881091;29;20029;-75
2021/06/11 07:46:52;;;;;;;16.75;7.57;;;615.10;1817.60;;;;;;4880502;29;20077;-79
2021/06/11 07:49:18;;;;;;;11.18;8.30;;;615.30;1792.00;;;;;;4880442;29;20045;-75
2021/06/11 07:51:44;;;;;;;16.98;8.18;;;640.00;1715.20;;;;;;4880316;29;20455;-77
2021/06/11 07:54:10;;;;;;;9.63;6.38;;;640.10;1689.60;;;;;;4880475;29;20033;-76
2021/06/11 07:56:39;;;;;;;8.00;6.53;;;640.20;1715.20;;;;;;4880299;29;20070;-77
2021/06/11 07:59:05;;;;;;;9.25;6.70;;;640.40;1638.40;;;;;;4863719;29;20029;-77
2021/06/11 08:01:35;;;;;;;10.98;5.93;;;640.20;1715.20;;;;;;4880207;29;20145;-76
2021/06/11 08:04:01;;;;;;;9.38;6.28;;;640.40;1664.00;;;;;;4880419;29;20097;-77
2021/06/11 08:06:27;;;;;;;12.10;7.13;;;640.50;1612.80;;;;;;4880271;29;20032;-79
2021/06/11 08:08:53;;;;;;;7.93;6.50;;;640.50;1638.40;;;;;;4863393;29;20029;-78
2021/06/11 08:11:19;;;;;;;8.32;6.90;;;640.50;1587.20;;;;;;4863290;29;20037;-76
2021/06/11 08:13:45;;;;;;;8.68;6.45;;;640.60;1638.40;;;;;;4863739;29;20317;-79
2021/06/11 08:16:10;;;;;;;8.63;6.35;;;640.70;1612.80;;;;;;4863121;29;20328;-78
2021/06/11 08:18:36;;;;;;;8.40;6.07;;;640.50;1664.00;;;;;;4880357;29;20028;-78
2021/06/11 08:21:02;;;;;;;9.43;6.63;;;640.80;1638.40;;;;;;4863299;29;20052;-84
2021/06/11 08:23:28;;;;;;;9.02;6.35;;;640.90;1561.60;;;;;;4862793;29;20091;-76
2021/06/11 08:25:53;;;;;;;9.38;7.20;;;640.70;1612.80;;;;;;4879190;29;20021;-77
2021/06/11 08:28:19;;;;;;;12.30;6.72;;;640.80;1638.40;;;;;;4879670;29;20033;-77
2021/06/11 08:30:45;;;;;;;8.43;7.03;;;665.60;1689.60;;;;;;4879837;29;20041;-79
2021/06/11 08:33:11;;;;;;;9.00;7.40;;;640.80;1638.40;;;;;;4878674;29;20503;-80
2021/06/11 08:35:36;;;;;;;10.07;6.85;;;665.60;1612.80;;;;;;4879820;29;20040;-82
2021/06/11 08:38:02;;;;;;;9.75;6.55;;;665.60;1638.40;;;;;;4877242;29;20081;-82
2021/06/11 08:40:29;;;;;;;6.65;5.95;;;665.80;1638.40;;;;;;4863349;29;20115;-79
2021/06/11 08:42:55;;;;;;;11.90;6.00;;;665.70;1612.80;;;;;;4862999;29;20033;-82
2021/06/11 08:45:22;;;;;;;8.23;5.80;;;665.70;1638.40;;;;;;4879743;29;20080;-82
2021/06/11 08:47:50;;;;;;;12.63;6.07;;;666.00;1638.40;;;;;;4863270;29;20089;-80
2021/06/11 08:50:23;;;;;;;6.25;5.65;;;666.10;1638.40;;;;;;4879590;29;20057;-80
2021/06/11 08:52:49;;;;;;;10.93;5.70;;;666.20;1612.80;;;;;;4858707;29;20044;-83
2021/06/11 08:55:15;;;;;;;8.23;4.65;;;666.40;1536.00;;;;;;4879400;29;20033;-84
2021/06/11 08:57:41;;;;;;;8.63;4.70;;;666.50;1484.80;;;;;;4863171;29;20028;-82
2021/06/11 09:00:08;;;;;;;7.32;4.60;;;691.20;1510.40;;;;;;4862881;29;20040;-79
2021/06/11 09:02:34;;;;;;;8.68;4.50;;;691.30;1510.40;;;;;;4863269;29;20036;-80
2021/06/11 09:05:00;;;;;;;6.13;4.38;;;691.20;1459.20;;;;;;4862695;29;20040;-77
2021/06/11 09:07:34;;;;;;;6.45;4.28;;;666.50;1408.00;;;;;;4861918;29;20033;-78
2021/06/11 09:10:02;;;;;;;5.53;4.15;;;666.40;1484.80;;;;;;4862684;29;20037;-80
2021/06/11 09:12:36;;;;;;;7.45;4.30;;;666.30;1433.60;;;;;;4860571;29;20029;-83
2021/06/11 09:15:15;;;;;;;8.23;4.22;;;666.30;1382.40;;;;;;4863065;29;20357;-80
2021/06/11 09:17:52;;;;;;;6.60;4.63;;;691.20;1433.60;;;;;;4862598;29;20052;-81
2021/06/11 09:20:31;;;;;;;7.63;4.13;;;691.40;1305.60;;;;;;4862587;29;20036;-82
2021/06/11 09:23:00;;;;;;;7.07;3.90;;;691.50;1356.80;;;;;;4860044;29;20060;-82
2021/06/11 09:25:30;;;;;;;6.57;4.25;;;691.50;1331.20;;;;;;4862248;29;20029;-79
2021/06/11 09:28:00;;;;;;;4.85;3.85;;;691.70;1331.20;;;;;;4862878;29;20095;-80
2021/06/11 09:30:33;;;;;;;8.52;4.45;;;691.80;1356.80;;;;;;4864342;29;20518;-80
2021/06/11 09:33:05;;;;;;;6.10;3.75;;;691.90;1331.20;;;;;;4871794;29;20017;-81
2021/06/11 09:35:35;;;;;;;6.22;4.20;;;692.00;1382.40;;;;;;4862389;29;20029;-81
2021/06/11 09:38:09;;;;;;;10.10;4.60;;;716.80;1331.20;;;;;;4854219;29;20053;-80
2021/06/11 09:40:35;;;;;;;7.78;4.47;;;716.80;1382.40;;;;;;4878816;29;20029;-82
2021/06/11 09:43:04;;;;;;;19.77;5.43;;;716.80;1331.20;;;;;;4878887;29;20025;-78
2021/06/11 09:45:31;;;;;;;17.33;5.18;;;716.90;1382.40;;;;;;4878657;29;20081;-77
2021/06/11 09:47:57;;;;;;;9.10;4.07;;;717.00;1356.80;;;;;;4878865;29;20531;-82
2021/06/11 09:50:34;;;;;;;7.03;4.30;;;717.20;1331.20;;;;;;4878818;29;20480;-82
2021/06/11 09:53:07;;;;;;;8.38;4.88;;;717.20;1280.00;;;;;;4862282;29;20129;-77
2021/06/11 09:55:51;;;;;;;7.32;3.92;;;717.10;1305.60;;;;;;4878555;29;20052;-78
2021/06/11 09:58:32;;;;;;;5.28;4.15;;;717.30;1280.00;;;;;;4861637;29;20025;-78
2021/06/11 10:01:09;;;;;;;5.05;4.32;;;717.40;1305.60;;;;;;4861778;29;20165;-79
2021/06/11 10:03:39;;;;;;;7.15;4.50;;;717.70;1280.00;;;;;;4871091;29;20468;-82
2021/06/11 10:06:07;;;;;;;6.13;4.10;;;742.40;1331.20;;;;;;4861372;29;20036;-78
2021/06/11 10:08:33;;;;;;;6.43;3.95;;;742.40;1331.20;;;;;;4866308;29;20507;-81
2021/06/11 10:11:03;;;;;;;7.22;4.53;;;717.70;1254.40;;;;;;4878125;29;20029;-78
2021/06/11 10:13:30;;;;;;;10.05;4.75;;;717.60;1280.00;;;;;;4861699;29;20025;-77
2021/06/11 10:15:58;;;;;;;8.32;4.88;;;742.50;1305.60;;;;;;4874464;29;20037;-81
2021/06/11 10:18:25;;;;;;;8.93;4.75;;;742.60;1203.20;;;;;;4861374;29;20021;-78
2021/06/11 10:20:51;;;;;;;7.03;5.95;;;742.60;1305.60;;;;;;4860585;29;20086;-78
2021/06/11 10:23:24;;;;;;;6.68;4.63;;;742.60;1254.40;;;;;;4868508;29;20526;-78
2021/06/11 10:25:55;;;;;;;6.50;4.50;;;717.50;1305.60;;;;;;4855771;29;20025;-82
2021/06/11 10:28:27;;;;;;;7.55;4.18;;;717.40;1331.20;;;;;;4877995;29;20516;-78
2021/06/11 10:31:01;;;;;;;5.68;4.07;;;717.20;1305.60;;;;;;4878350;29;20037;-82
2021/06/11 10:33:46;;;;;;;7.78;4.80;;;716.90;1331.20;;;;;;4878031;29;20036;-82
2021/06/11 10:36:34;;;;;;;8.65;5.25;;;692.00;1280.00;;;;;;4878031;29;20056;-80
2021/06/11 10:39:01;;;;;;;7.72;4.53;;;691.80;1280.00;;;;;;4878159;29;20017;-84
2021/06/11 10:41:48;;;;;;;6.13;4.50;;;691.60;1305.60;;;;;;4877393;29;20491;-78
2021/06/11 10:44:36;;;;;;;8.95;4.93;;;691.50;1280.00;;;;;;4878169;29;20025;-83
2021/06/11 10:47:16;;;;;;;4.85;4.30;;;691.30;1331.20;;;;;;4877891;29;20033;-79
2021/06/11 10:49:58;;;;;;;6.20;4.60;;;691.30;1356.80;;;;;;4878341;29;20037;-79
2021/06/11 10:52:45;;;;;;;5.55;4.32;;;691.30;1356.80;;;;;;4881868;29;20035;-79
2021/06/11 10:55:14;;;;;;;7.20;5.03;;;691.30;1408.00;;;;;;4881614;29;20025;-79
2021/06/11 10:57:41;;;;;;;6.13;4.53;;;666.50;1408.00;;;;;;4881646;29;20113;-79
2021/06/11 11:00:29;;;;;;;8.98;4.25;;;691.40;1331.20;;;;;;4880345;29;20081;-80
2021/06/11 11:02:59;;;;;;;5.68;4.63;;;691.80;1331.20;;;;;;4881226;29;20028;-80
2021/06/11 11:05:29;;;;;;;7.82;4.32;;;716.80;1280.00;;;;;;4880585;29;20044;-79
2021/06/11 11:07:55;;;;;;;6.95;4.80;;;691.90;1331.20;;;;;;4880057;29;20479;-79
2021/06/11 11:10:41;;;;;;;7.70;4.47;;;691.80;1331.20;;;;;;4856928;29;20090;-79
2021/06/11 11:13:12;;;;;;;11.43;4.60;;;691.40;1305.60;;;;;;4847091;29;20022;-80
2021/06/11 11:15:47;;;;;;;6.82;5.22;;;691.30;1305.60;;;;;;4849003;29;20109;-79
2021/06/11 11:18:24;;;;;;;9.80;5.00;;;691.20;1331.20;;;;;;4848557;29;20024;-80
2021/06/11 11:20:51;;;;;;;5.65;4.43;;;691.30;1331.20;;;;;;4846115;29;20441;-78
2021/06/11 11:23:20;;;;;;;7.60;4.38;;;691.80;1305.60;;;;;;4880629;29;20053;-79
2021/06/11 11:25:50;;;;;;;8.48;4.38;;;716.90;1280.00;;;;;;4864640;29;20497;-82
2021/06/11 11:28:17;;;;;;;6.07;3.80;;;716.90;1356.80;;;;;;4880784;29;20483;-80
2021/06/11 11:30:45;;;;;;;7.90;4.38;;;717.10;1280.00;;;;;;4881061;29;20399;-78
2021/06/11 11:33:12;;;;;;;5.78;4.50;;;716.90;1331.20;;;;;;4881157;29;20365;-79
2021/06/11 11:35:40;;;;;;;8.63;4.15;;;692.10;1280.00;;;;;;4867658;29;20065;-79
2021/06/11 11:38:08;;;;;;;9.27;3.83;;;716.80;1331.20;;;;;;4879888;29;20024;-82
2021/06/11 11:40:35;;;;;;;8.75;3.95;;;716.90;1280.00;;;;;;4879712;29;20025;-82
2021/06/11 11:43:01;;;;;;;7.68;3.30;;;717.20;1280.00;;;;;;4880065;29;20057;-79
2021/06/11 11:45:32;;;;;;;6.28;2.90;;;717.50;1203.20;;;;;;4867024;29;20033;-82
2021/06/11 11:48:00;;;;;;;9.15;3.30;;;717.50;1100.80;;;;;;4880904;29;20029;-81
2021/06/11 11:50:28;;;;;;;5.65;2.88;;;742.40;1126.40;;;;;;4879725;29;20047;-78
2021/06/11 11:52:55;;;;;;;3.90;2.65;;;742.50;1152.00;;;;;;4871734;29;20499;-79
2021/06/11 11:55:21;;;;;;;4.22;2.10;;;742.50;998.40;;;;;;4870459;29;20112;-83
2021/06/11 11:57:46;;;;;;;7.95;2.40;;;717.60;947.20;;;;;;4866229;29;20021;-78
2021/06/11 12:00:16;;;;;;;5.18;2.80;;;717.20;1024.00;;;;;;4848038;29;20025;-78
2021/06/11 12:02:43;;;;;;;5.90;3.33;;;717.10;1075.20;;;;;;4847519;29;20021;-83
2021/06/11 12:05:11;;;;;;;5.55;3.38;;;716.80;1126.40;;;;;;4861593;29;20044;-79
2021/06/11 12:07:37;;;;;;;7.47;3.90;;;691.90;1177.60;;;;;;4877759;29;20021;-85
2021/06/11 12:10:03;;;;;;;8.02;4.32;;;691.80;1228.80;;;;;;4880166;29;20360;-78
2021/06/11 12:12:29;;;;;;;7.70;3.83;;;691.50;1254.40;;;;;;4863672;29;20031;-82
2021/06/11 12:14:55;;;;;;;7.30;3.83;;;691.30;1305.60;;;;;;4863548;29;20029;-80
2021/06/11 12:17:21;;;;;;;5.70;4.05;;;666.50;1305.60;;;;;;4863663;29;20029;-81
2021/06/11 12:19:47;;;;;;;9.50;4.70;;;666.50;1305.60;;;;;;4863475;29;20029;-84
2021/06/11 12:22:14;;;;;;;6.25;3.97;;;691.30;1305.60;;;;;;4863397;29;20042;-81
2021/06/11 12:24:41;;;;;;;65.03;37.65;;;666.50;1331.20;;;;;;4863467;29;20035;-81
2021/06/11 12:27:07;;;;;;;7.53;5.70;;;666.40;1331.20;;;;;;4864067;29;20036;-79
2021/06/11 12:29:33;;;;;;;11.10;5.82;;;666.50;1331.20;;;;;;4863522;29;20037;-81
2021/06/11 12:31:59;;;;;;;18.90;11.68;;;666.50;1382.40;;;;;;4864341;29;20028;-86
2021/06/11 12:34:25;;;;;;;15.70;9.98;;;666.50;1356.80;;;;;;4880211;29;20040;-80
2021/06/11 12:36:51;;;;;;;7.55;4.72;;;666.50;1356.80;;;;;;4880330;29;20161;-81
2021/06/11 12:39:17;;;;;;;10.52;4.50;;;666.40;1382.40;;;;;;4874497;29;20515;-81
2021/06/11 12:41:43;;;;;;;61.88;40.30;;;666.40;1382.40;;;;;;4880094;29;20029;-81
2021/06/11 12:46:43;;;;;;;7.45;4.90;;;666.30;1484.80;;;;;;4880481;29;20138;-84
2021/06/11 12:49:09;;;;;;;41.22;23.33;;;666.20;1561.60;;;;;;4878711;29;20402;-83
2021/06/11 12:51:35;;;;;;;21.23;9.15;;;666.20;1561.60;;;;;;4878892;29;20025;-89
2021/06/11 12:54:01;;;;;;;10.82;6.43;;;666.00;1561.60;;;;;;4865162;29;20544;-82
2021/06/11 12:56:28;;;;;;;6.20;4.78;;;665.80;1510.40;;;;;;4852149;29;20017;-83
2021/06/11 12:58:54;;;;;;;13.52;6.72;;;665.70;1510.40;;;;;;4861787;29;20025;-90
2021/06/11 13:01:20;;;;;;;7.43;3.90;;;640.80;1510.40;;;;;;4863509;29;20464;-83
2021/06/11 13:03:45;;;;;;;8.05;4.75;;;640.70;1484.80;;;;;;4863461;29;20065;-87
2021/06/11 13:06:11;;;;;;;5.43;4.25;;;640.70;1510.40;;;;;;4863988;29;20056;-83
2021/06/11 13:08:37;;;;;;;6.68;4.82;;;640.60;1536.00;;;;;;4863998;29;20077;-82
2021/06/11 13:11:03;;;;;;;9.48;4.82;;;640.50;1587.20;;;;;;4880206;29;20029;-79
2021/06/11 13:13:29;;;;;;;7.80;4.38;;;640.50;1612.80;;;;;;4862590;29;20483;-81
2021/06/11 13:15:55;;;;;;;7.78;4.75;;;640.30;1664.00;;;;;;4863031;29;20040;-83
2021/06/11 13:18:20;;;;;;;5.93;4.50;;;640.40;1689.60;;;;;;4862749;29;20448;-81
2021/06/11 13:20:46;;;;;;;9.65;4.80;;;640.40;1715.20;;;;;;4862856;29;20025;-83
2021/06/11 13:23:12;;;;;;;10.02;4.88;;;640.40;1740.80;;;;;;4862389;29;20061;-85
2021/06/11 13:25:38;;;;;;;12.30;4.93;;;640.50;1740.80;;;;;;4862764;29;20047;-84
2021/06/11 13:28:04;;;;;;;9.65;5.00;;;640.40;1740.80;;;;;;4863937;29;20029;-84
2021/06/11 13:30:31;;;;;;;7.10;4.22;;;640.40;1740.80;;;;;;4878772;29;20040;-79
2021/06/11 13:32:57;;;;;;;7.00;4.90;;;640.50;1740.80;;;;;;4862811;29;20460;-79
2021/06/11 13:35:24;;;;;;;8.90;4.75;;;640.60;1715.20;;;;;;4878816;29;20036;-80
2021/06/11 13:37:50;;;;;;;8.20;4.38;;;640.40;1740.80;;;;;;4862239;29;20029;-81
2021/06/11 13:40:16;;;;;;;7.03;4.35;;;640.70;1664.00;;;;;;4862149;29;20093;-76
2021/06/11 13:42:43;;;;;;;7.32;4.25;;;640.90;1715.20;;;;;;4878488;29;20032;-87
2021/06/11 13:45:11;;;;;;;5.35;4.30;;;665.60;1689.60;;;;;;4861525;29;20021;-77
2021/06/11 13:47:43;;;;;;;5.72;4.03;;;665.60;1638.40;;;;;;4862237;29;20029;-79
2021/06/11 13:50:13;;;;;;;7.55;4.10;;;665.70;1612.80;;;;;;4859651;29;20128;-78
2021/06/11 13:52:39;;;;;;;7.03;4.45;;;666.00;1587.20;;;;;;4878275;29;20464;-79
2021/06/11 13:55:07;;;;;;;6.32;4.35;;;666.00;1612.80;;;;;;4878560;29;20048;-81
2021/06/11 13:57:33;;;;;;;6.00;3.63;;;666.20;1561.60;;;;;;4861998;29;20029;-79
2021/06/11 13:59:59;;;;;;;6.95;4.25;;;666.10;1561.60;;;;;;4862473;29;20101;-87
2021/06/11 14:02:25;;;;;;;7.47;4.20;;;666.20;1587.20;;;;;;4847094;29;20445;-83
2021/06/11 14:04:51;;;;;;;9.45;4.30;;;666.00;1638.40;;;;;;4879091;29;20037;-82
2021/06/11 14:07:16;;;;;;;7.53;4.50;;;665.90;1638.40;;;;;;4878493;29;20063;-80
2021/06/11 14:09:42;;;;;;;9.95;4.38;;;665.80;1664.00;;;;;;4878855;29;20111;-85
2021/06/11 14:12:08;;;;;;;6.95;4.00;;;665.80;1664.00;;;;;;4862437;29;20090;-89
2021/06/11 14:14:34;;;;;;;6.78;3.80;;;665.70;1587.20;;;;;;4878639;29;20085;-80
2021/06/11 14:16:59;;;;;;;8.02;3.45;;;665.70;1561.60;;;;;;4862478;29;20029;-81
2021/06/11 14:19:28;;;;;;;8.80;3.47;;;640.90;1536.00;;;;;;4862332;29;20033;-83
2021/06/11 14:21:53;;;;;;;5.28;3.42;;;640.80;1484.80;;;;;;4862148;29;20053;-89
2021/06/11 14:24:19;;;;;;;7.85;3.28;;;640.70;1408.00;;;;;;4877741;29;20507;-86
2021/06/11 14:26:45;;;;;;;3.33;2.78;;;640.60;1433.60;;;;;;4862092;29;20108;-84
2021/06/11 14:29:10;;;;;;;9.05;3.83;;;640.50;1459.20;;;;;;4861215;29;20033;-85
2021/06/11 14:31:36;;;;;;;6.00;2.97;;;640.40;1484.80;;;;;;4872330;29;20145;-81
2021/06/11 14:34:02;;;;;;;6.18;3.60;;;640.30;1484.80;;;;;;4861197;29;20483;-79
2021/06/11 14:36:28;;;;;;;5.82;3.22;;;640.20;1536.00;;;;;;4861412;29;20751;-82
2021/06/11 14:38:53;;;;;;;6.10;3.60;;;640.10;1561.60;;;;;;4862200;29;20039;-83
2021/06/11 14:41:19;;;;;;;5.72;3.55;;;640.00;1587.20;;;;;;4861970;29;20033;-82
2021/06/11 14:43:45;;;;;;;9.27;3.53;;;640.00;1587.20;;;;;;4862079;29;20025;-81
2021/06/11 14:46:10;;;;;;;6.15;3.40;;;640.00;1587.20;;;;;;4862327;29;20081;-87
2021/06/11 14:48:36;;;;;;;6.53;3.50;;;615.20;1612.80;;;;;;4861979;29;20475;-83
2021/06/11 14:51:02;;;;;;;6.47;3.25;;;615.20;1612.80;;;;;;4861476;29;20097;-90
2021/06/11 14:56:01;;;;;;;6.07;3.00;;;615.20;1638.40;;;;;;4877689;29;20032;-79
2021/06/11 14:58:27;;;;;;;9.63;3.25;;;615.30;1612.80;;;;;;4861044;29;20511;-82
2021/06/11 15:00:57;;;;;;;9.35;2.90;;;615.20;1612.80;;;;;;4877945;29;20036;-87
2021/06/11 15:03:24;;;;;;;4.38;3.08;;;640.00;1561.60;;;;;;4877375;29;20027;-79
2021/06/11 15:05:50;;;;;;;5.15;2.20;;;640.20;1484.80;;;;;;4877669;29;20085;-77
2021/06/11 15:08:16;;;;;;;4.50;2.53;;;640.20;1433.60;;;;;;4861005;29;20029;-82
2021/06/11 15:10:42;;;;;;;5.78;2.55;;;640.10;1484.80;;;;;;4861086;29;20373;-87
2021/06/11 15:13:09;;;;;;;5.68;2.97;;;640.10;1484.80;;;;;;4861333;29;20051;-81
2021/06/11 15:15:35;;;;;;;4.40;2.47;;;640.00;1536.00;;;;;;4861239;29;20124;-79
2021/06/11 15:18:01;;;;;;;31.33;5.78;;;615.30;1561.60;;;;;;4861225;29;20112;-89
2021/06/11 15:20:26;;;;;;;20.33;3.03;;;615.30;1587.20;;;;;;4877938;29;20379;-79
2021/06/11 15:22:52;;;;;;;7.95;2.60;;;615.10;1612.80;;;;;;4860474;29;20061;-88
2021/06/11 15:25:18;;;;;;;3.20;2.25;;;615.10;1587.20;;;;;;4861089;29;20387;-80
2021/06/11 15:27:43;;;;;;;4.72;2.53;;;615.00;1561.60;;;;;;4877745;29;20084;-80
2021/06/11 15:30:10;;;;;;;4.65;3.20;;;615.00;1587.20;;;;;;4861082;29;20431;-80
2021/06/11 15:32:36;;;;;;;5.50;2.95;;;614.80;1587.20;;;;;;4865893;29;20496;-79
2021/06/11 15:35:01;;;;;;;5.40;2.83;;;614.80;1587.20;;;;;;4876529;29;20145;-90
2021/06/11 15:37:27;;;;;;;7.38;2.85;;;614.80;1587.20;;;;;;4877378;29;20029;-83
2021/06/11 15:39:53;;;;;;;4.78;2.65;;;614.80;1587.20;;;;;;4864043;29;20045;-87
2021/06/11 15:42:20;;;;;;;7.03;2.40;;;614.70;1561.60;;;;;;4863890;29;20476;-80